createdAt,value
2019-01-19T19:16:50.302Z,101079.59
2019-01-19T19:19:22.555Z,101086.44
2019-01-19T19:21:54.820Z,101083.06
2019-01-19T19:24:27.049Z,101084.40
2019-01-19T19:26:59.426Z,101084.09
2019-01-19T19:29:31.860Z,101080.73
2019-01-19T19:32:04.092Z,101088.02
2019-01-19T19:34:37.310Z,101080.20
2019-01-19T19:37:09.402Z,101078.59
2019-01-19T19:39:41.643Z,101080.59
2019-01-19T19:42:13.830Z,101080.09
2019-01-19T19:44:47.309Z,101080.33
2019-01-19T19:47:19.412Z,101078.02
2019-01-19T19:49:52.283Z,101080.52
2019-01-19T19:52:19.868Z,101082.78
2019-01-19T19:54:49.463Z,101076.12
2019-01-19T19:57:15.890Z,101080.14
2019-01-19T19:59:42.246Z,101079.17
2019-01-19T20:02:08.791Z,101077.83
2019-01-19T20:04:35.205Z,101070.98
2019-01-19T20:07:05.343Z,101075.15
2019-01-19T20:09:32.788Z,101065.52
2019-01-19T20:12:01.290Z,101070.92
2019-01-19T20:14:27.659Z,101065.97
2019-01-19T20:16:54.374Z,101068.99
2019-01-19T20:19:21.169Z,101071.47
2019-01-19T20:21:48.286Z,101064.79
2019-01-19T20:24:14.685Z,101074.70
2019-01-19T20:26:41.064Z,101075.30
2019-01-19T20:29:07.964Z,101080.11
2019-01-19T20:31:35.761Z,101076.34
2019-01-19T20:34:02.165Z,101082.20
2019-01-19T20:36:28.569Z,101082.97
2019-01-19T20:38:55.011Z,101079.94
2019-01-19T20:41:21.600Z,101082.66
2019-01-19T20:43:48.285Z,101082.66
2019-01-19T20:46:14.810Z,101084.27
2019-01-19T20:48:43.118Z,101077.57
2019-01-19T20:51:09.564Z,101081.26
2019-01-19T20:53:36.022Z,101085.03
2019-01-19T20:56:03.484Z,101081.86
2019-01-19T20:58:29.874Z,101080.11
2019-01-19T21:00:56.507Z,101076.34
2019-01-19T21:03:22.938Z,101084.05
2019-01-19T21:05:50.878Z,101081.95
2019-01-19T21:08:17.328Z,101085.00
2019-01-19T21:10:44.614Z,101085.62
2019-01-19T21:13:11.021Z,101083.27
2019-01-19T21:15:37.548Z,101081.33
2019-01-19T21:18:04.651Z,101078.02
2019-01-19T21:20:31.250Z,101073.77
2019-01-19T21:22:57.707Z,101069.16
2019-01-19T21:25:26.472Z,101075.36
2019-01-19T21:27:53.135Z,101066.73
2019-01-19T21:30:19.690Z,101069.76
2019-01-19T21:32:46.486Z,101073.19
2019-01-19T21:35:13.060Z,101074.78
2019-01-19T21:37:39.447Z,101076.96
2019-01-19T21:40:10.203Z,101069.89
2019-01-19T21:42:36.933Z,101068.55
2019-01-19T21:45:09.751Z,101070.52
2019-01-19T21:47:36.340Z,101067.83
2019-01-19T21:50:05.814Z,101065.61
2019-01-19T21:52:32.372Z,101065.02
2019-01-19T21:55:00.803Z,101066.72
2019-01-19T21:57:27.330Z,101062.58
2019-01-19T21:59:53.985Z,101066.22
2019-01-19T22:02:20.680Z,101060.98
2019-01-19T22:04:47.665Z,101051.11
2019-01-19T22:07:15.673Z,101057.58
2019-01-19T22:09:42.171Z,101057.45
2019-01-19T22:12:09.776Z,101056.22
2019-01-19T22:14:36.274Z,101057.25
2019-01-19T22:17:02.880Z,101055.78
2019-01-19T22:19:29.455Z,101063.17
2019-01-19T22:21:55.949Z,101053.44
2019-01-19T22:24:23.004Z,101042.48
2019-01-19T22:26:53.426Z,101052.67
2019-01-19T22:29:20.072Z,101046.23
2019-01-19T22:31:46.763Z,101043.01
2019-01-19T22:34:13.189Z,101043.70
2019-01-19T22:36:39.813Z,101037.26
2019-01-19T22:39:06.748Z,101039.30
2019-01-19T22:41:33.170Z,101032.48
2019-01-19T22:43:59.685Z,101045.03
2019-01-19T22:46:26.143Z,101032.14
2019-01-19T22:48:52.615Z,101035.16
2019-01-19T22:51:19.111Z,101034.56
2019-01-19T22:53:46.047Z,101037.00
2019-01-19T22:56:12.446Z,101033.36
2019-01-19T22:58:38.876Z,101027.14
2019-01-19T23:01:11.039Z,101032.74
2019-01-19T23:03:37.592Z,101026.41
2019-01-19T23:06:04.168Z,101030.20
2019-01-19T23:08:33.592Z,101029.81
2019-01-19T23:11:01.230Z,101025.44
2019-01-19T23:13:28.100Z,101028.39
2019-01-19T23:15:54.523Z,101024.16
2019-01-19T23:18:20.943Z,101021.38
2019-01-19T23:20:47.796Z,101020.44
2019-01-19T23:23:14.330Z,101023.00
2019-01-19T23:25:41.510Z,101013.75
2019-01-19T23:28:08.026Z,101009.74
2019-01-19T23:30:34.672Z,101011.09
2019-01-19T23:33:01.235Z,101019.73
2019-01-19T23:35:27.819Z,101007.81
2019-01-19T23:37:54.226Z,101010.63
2019-01-19T23:40:20.602Z,101013.17
2019-01-19T23:42:47.554Z,101005.98
2019-01-19T23:45:14.068Z,101004.64
2019-01-19T23:47:40.633Z,101010.97
2019-01-19T23:50:12.054Z,101005.14
2019-01-19T23:52:38.476Z,101007.45
2019-01-19T23:55:05.643Z,101004.27
2019-01-19T23:57:32.177Z,101000.37
2019-01-19T23:59:58.703Z,101000.48
